Dr.kaiyo — JD2325 — position and weather

sailwx.info

Track history (hours):
 
Tides and Currents Weather Stations Pressure Air Temp Water Temp Dewpoint Dewpoint Depression Visibility Wind Speed Wind Dir Waves Ship Positions

Dr.kaiyo

Last reported at 2016-Dec-09 05:13 UTC. Time now 2016-Dec-09 07:50 UTC.
Position N 34°41' E 135°12'.

Length 31 m.

Type: Other ship. MMSI: 431301823.

Date/timePositionNaut miles runAvg speedWind from/ knotsBaromVisibWave heightAir tempDewpointWater temp
2016-Dec-09 05:13N 34°41' E 135°12'5 7.5
2016-Dec-09 04:33N 34°41' E 135°18'1 1.3
2016-Dec-09 03:32N 34°40' E 135°20'5 5.0
2016-Dec-09 02:33N 34°37' E 135°15'1313.1
2016-Dec-09 01:33N 34°29' E 135°02'1212.2
2016-Dec-09 00:33N 34°39' E 135°11'3 2.7
2016-Dec-08 23:33N 34°41' E 135°12'0 0.0
2016-Dec-08 05:04N 34°41' E 135°12'3 6.3
2016-Dec-08 04:33N 34°40' E 135°16'4 3.7
2016-Dec-08 03:33N 34°40' E 135°20'2 2.2
2016-Dec-08 02:33N 34°38' E 135°19'1413.6
2016-Dec-08 01:33N 34°27' E 135°10'1312.9
2016-Dec-08 00:34N 34°39' E 135°11'2 2.3
2016-Dec-07 23:33N 34°41' E 135°12'0 0.0
2016-Dec-06 05:11N 34°41' E 135°12'4 7.1
2016-Dec-06 04:34N 34°39' E 135°17'4 3.6
2016-Dec-06 03:33N 34°41' E 135°20'0 0.2
2016-Dec-06 02:33N 34°41' E 135°20'1313.2
2016-Dec-06 01:33N 34°30' E 135°11'1110.7
2016-Dec-06 00:33N 34°41' E 135°12'0 0.4
2016-Dec-05 23:33N 34°41' E 135°13'1 0.7
2016-Dec-05 22:33N 34°41' E 135°12'  
2016-Dec-03 06:33N 34°42' E 135°13'1312.3
2016-Dec-03 05:32N 34°31' E 135°06'1414.3
2016-Dec-03 04:32N 34°18' E 134°57'1 0.9
2016-Dec-03 03:34N 34°17' E 134°57'0 0.0
2016-Dec-03 02:33N 34°17' E 134°57'0 0.0
2016-Dec-03 01:34N 34°17' E 134°57'9 9.3
2016-Dec-03 00:33N 34°26' E 135°02'1414.0
2016-Dec-02 23:33N 34°38' E 135°10'4 0.2
2016-Dec-02 04:33N 34°40' E 135°15'4 3.5
2016-Dec-02 03:32N 34°40' E 135°19'4 3.9
2016-Dec-02 02:33N 34°38' E 135°16'1413.9
2016-Dec-02 01:33N 34°29' E 135°03'1212.1
2016-Dec-02 00:33N 34°39' E 135°11'3 2.9
2016-Dec-01 23:33N 34°41' E 135°12'1 0.1
2016-Dec-01 05:33N 34°41' E 135°14'1312.9
2016-Dec-01 04:33N 34°28' E 135°17'5 4.8
2016-Dec-01 03:31N 34°24' E 135°15'3 2.6
2016-Dec-01 02:25N 34°22' E 135°12'1213.7
2016-Dec-01 01:32N 34°31' E 135°01'1212.3
2016-Dec-01 00:33N 34°39' E 135°11'2 2.4
2016-Nov-30 23:33N 34°41' E 135°12'0 0.0
2016-Nov-29 23:33N 34°41' E 135°12'0 0.0
2016-Nov-29 06:34N 34°42' E 135°13'1110.7
2016-Nov-29 05:33N 34°32' E 135°08'  
Track history (hours):
 
Tides and Currents Weather Stations Pressure Air Temp Water Temp Dewpoint Dewpoint Depression Visibility Wind Speed Wind Dir Waves Ship Positions

Dr.kaiyo

Last reported at 2016-Dec-09 05:13 UTC. Time now 2016-Dec-09 07:50 UTC.
Position N 34°41' E 135°12'.

Length 31 m.

Type: Other ship. MMSI: 431301823.

Date/timePositionNaut miles runAvg speedWind from/ knotsBaromVisibWave heightAir tempDewpointWater temp
2016-Dec-09 05:13N 34°41' E 135°12'5 7.5
2016-Dec-09 04:33N 34°41' E 135°18'1 1.3
2016-Dec-09 03:32N 34°40' E 135°20'5 5.0
2016-Dec-09 02:33N 34°37' E 135°15'1313.1
2016-Dec-09 01:33N 34°29' E 135°02'1212.2
2016-Dec-09 00:33N 34°39' E 135°11'3 2.7
2016-Dec-08 23:33N 34°41' E 135°12'0 0.0
2016-Dec-08 05:04N 34°41' E 135°12'3 6.3
2016-Dec-08 04:33N 34°40' E 135°16'4 3.7
2016-Dec-08 03:33N 34°40' E 135°20'2 2.2
2016-Dec-08 02:33N 34°38' E 135°19'1413.6
2016-Dec-08 01:33N 34°27' E 135°10'1312.9
2016-Dec-08 00:34N 34°39' E 135°11'2 2.3
2016-Dec-07 23:33N 34°41' E 135°12'0 0.0
2016-Dec-06 05:11N 34°41' E 135°12'4 7.1
2016-Dec-06 04:34N 34°39' E 135°17'4 3.6
2016-Dec-06 03:33N 34°41' E 135°20'0 0.2
2016-Dec-06 02:33N 34°41' E 135°20'1313.2
2016-Dec-06 01:33N 34°30' E 135°11'1110.7
2016-Dec-06 00:33N 34°41' E 135°12'0 0.4
2016-Dec-05 23:33N 34°41' E 135°13'1 0.7
2016-Dec-05 22:33N 34°41' E 135°12'  
2016-Dec-03 06:33N 34°42' E 135°13'1312.3
2016-Dec-03 05:32N 34°31' E 135°06'1414.3
2016-Dec-03 04:32N 34°18' E 134°57'1 0.9
2016-Dec-03 03:34N 34°17' E 134°57'0 0.0
2016-Dec-03 02:33N 34°17' E 134°57'0 0.0
2016-Dec-03 01:34N 34°17' E 134°57'9 9.3
2016-Dec-03 00:33N 34°26' E 135°02'1414.0
2016-Dec-02 23:33N 34°38' E 135°10'4 0.2
2016-Dec-02 04:33N 34°40' E 135°15'4 3.5
2016-Dec-02 03:32N 34°40' E 135°19'4 3.9
2016-Dec-02 02:33N 34°38' E 135°16'1413.9
2016-Dec-02 01:33N 34°29' E 135°03'1212.1
2016-Dec-02 00:33N 34°39' E 135°11'3 2.9
2016-Dec-01 23:33N 34°41' E 135°12'1 0.1
2016-Dec-01 05:33N 34°41' E 135°14'1312.9
2016-Dec-01 04:33N 34°28' E 135°17'5 4.8
2016-Dec-01 03:31N 34°24' E 135°15'3 2.6
2016-Dec-01 02:25N 34°22' E 135°12'1213.7
2016-Dec-01 01:32N 34°31' E 135°01'1212.3
2016-Dec-01 00:33N 34°39' E 135°11'2 2.4
2016-Nov-30 23:33N 34°41' E 135°12'0 0.0
2016-Nov-29 23:33N 34°41' E 135°12'0 0.0
2016-Nov-29 06:34N 34°42' E 135°13'1110.7
2016-Nov-29 05:33N 34°32' E 135°08'  

Dump ship's entire track history